Saint Anthony, Idaho
Current Conditions -  °F | °C
As of 7:53 PM on Friday 24 Oct 2014 (Local Time) from KRXE Reporting Station
Clear Clear  
Wind Chill: 55°   Ceiling: Unl
Heat Index: 55°   Visibility: 10mi
Dew Point: 29°   Wind: 6mph
Humidity: 37%   Direction: 170°S
Pressure: 30.1"   Gusts: NA
Location:  43.97°N, 111.68°W
Report Text: KRXE 250153Z AUTO 17005KT 10SM CLR 13/M02 A3010 RMK AO2 SLP174 T01281017
Loading
Personal Weather Stations






























Interactive Weather Map
Tropical Storm Tracking
New forecast layout! Learn more

10-Day Weather Forecast

Advertisements
Track Severe Weather on mobile